Time;durP1;ratioP1;P1;durP2;ratioP2;P2;SDS_P1;SDS_P2;PMS_P1;PMS_P2;Temp;Humidity;BMP_temperature;BMP_pressure;BME280_temperature;BME280_humidity;BME280_pressure;Samples;Min_cycle;Max_cycle;Signal;HPM_P1;HPM_P2
2023/06/04 00:01:02;;;;;;;7.70;2.40;;;;;;;23.31;57.78;99076.63;6095899;23;20184;-85
2023/06/04 00:03:27;;;;;;;4.80;2.30;;;;;;;23.25;57.65;99081.63;6096263;23;20166;-85
2023/06/04 00:05:53;;;;;;;6.37;2.60;;;;;;;23.27;57.83;99079.63;6096621;23;20156;-85
2023/06/04 00:08:18;;;;;;;8.03;2.53;;;;;;;23.30;57.85;99086.47;6096700;23;20530;-85
2023/06/04 00:10:44;;;;;;;3.80;2.03;;;;;;;23.38;57.51;99086.53;6096289;23;20506;-85
2023/06/04 00:13:10;;;;;;;9.07;2.27;;;;;;;23.35;58.36;99100.19;6096270;23;20261;-84
2023/06/04 00:15:35;;;;;;;4.07;2.27;;;;;;;23.36;58.80;99101.03;6096669;23;20479;-85
2023/06/04 00:18:01;;;;;;;5.03;2.43;;;;;;;23.31;59.91;99098.88;6097289;23;20231;-85
2023/06/04 00:20:26;;;;;;;5.00;2.10;;;;;;;23.23;60.07;99097.00;6095604;23;20152;-85
2023/06/04 00:22:51;;;;;;;3.83;2.00;;;;;;;23.24;59.76;99095.97;6095891;23;20152;-85
2023/06/04 00:25:17;;;;;;;4.27;2.10;;;;;;;23.29;59.08;99097.34;6096198;23;20513;-85
2023/06/04 00:27:42;;;;;;;4.93;1.87;;;;;;;23.36;58.71;99090.34;6097314;23;20480;-85
2023/06/04 00:30:08;;;;;;;6.63;2.40;;;;;;;23.33;58.35;99096.84;6095760;23;20152;-85
2023/06/04 00:32:34;;;;;;;3.50;1.83;;;;;;;23.23;57.30;99093.47;6096876;23;20591;-85
2023/06/04 00:35:00;;;;;;;4.40;2.27;;;;;;;23.10;56.66;99093.09;6097263;23;20227;-85
2023/06/04 00:37:27;;;;;;;4.53;1.97;;;;;;;23.04;56.69;99099.91;6097368;23;20240;-85
2023/06/04 00:39:53;;;;;;;5.20;2.27;;;;;;;23.08;56.93;99095.09;6096928;23;20600;-85
2023/06/04 00:42:18;;;;;;;4.30;1.83;;;;;;;23.15;57.04;99101.47;6096834;23;20180;-85
2023/06/04 00:44:45;;;;;;;3.20;1.90;;;;;;;23.20;56.51;99094.66;6096970;23;20153;-85
2023/06/04 00:47:12;;;;;;;5.00;1.97;;;;;;;23.27;56.62;99097.50;6096950;23;20153;-85
2023/06/04 00:49:38;;;;;;;7.30;2.73;;;;;;;23.24;56.99;99095.19;6097224;23;20156;-85
2023/06/04 00:52:05;;;;;;;3.33;2.10;;;;;;;23.21;56.98;99099.00;6097612;23;20549;-85
2023/06/04 00:54:32;;;;;;;4.80;2.17;;;;;;;23.18;57.62;99095.81;6095709;23;20280;-85
2023/06/04 00:56:58;;;;;;;7.60;2.17;;;;;;;23.15;57.83;99101.47;6097529;23;20152;-85
2023/06/04 00:59:24;;;;;;;4.70;2.30;;;;;;;23.12;57.94;99102.63;6096929;23;20592;-85
2023/06/04 01:02:03;;;;;;;4.90;2.30;;;;;;;23.08;57.16;99095.09;6096851;23;20172;-85
2023/06/04 01:04:51;;;;;;;7.57;1.93;;;;;;;23.03;56.88;99089.41;6096898;23;20466;-85
2023/06/04 01:07:18;;;;;;;3.77;1.87;;;;;;;23.00;56.55;99087.03;6081383;23;20247;-85
2023/06/04 01:09:45;;;;;;;4.00;1.93;;;;;;;23.04;56.15;99083.88;6095700;23;20463;-85
2023/06/04 01:12:11;;;;;;;3.83;1.83;;;;;;;22.98;56.60;99089.84;6096891;23;20232;-85
2023/06/04 01:14:36;;;;;;;6.43;2.03;;;;;;;22.91;56.28;99098.69;6097143;23;20532;-85
2023/06/04 01:17:17;;;;;;;5.07;2.13;;;;;;;22.87;56.56;99092.84;6096824;23;20148;-85
2023/06/04 01:20:04;;;;;;;4.30;2.13;;;;;;;22.90;56.58;99095.19;6097203;23;20140;-85
2023/06/04 01:22:36;;;;;;;2.80;1.60;;;;;;;22.96;56.81;99091.00;6096983;23;20188;-85
2023/06/04 01:25:18;;;;;;;4.40;2.00;;;;;;;22.95;57.69;99092.03;6096799;23;20169;-85
2023/06/04 01:27:48;;;;;;;4.63;1.90;;;;;;;22.84;56.66;99095.81;6098871;23;20133;-85
2023/06/04 01:30:14;;;;;;;4.93;1.90;;;;;;;22.83;56.12;99095.97;6097399;23;20223;-85
2023/06/04 01:32:39;;;;;;;4.47;2.07;;;;;;;22.79;56.66;99097.28;6099267;23;20153;-85
2023/06/04 01:35:08;;;;;;;7.20;1.87;;;;;;;22.81;57.18;99104.16;6098569;23;20234;-85
2023/06/04 01:37:34;;;;;;;4.80;2.17;;;;;;;22.81;57.93;99103.31;6098552;23;20155;-85
2023/06/04 01:39:59;;;;;;;3.80;2.00;;;;;;;22.80;57.96;99099.78;6098816;23;20148;-85
2023/06/04 01:42:25;;;;;;;3.53;1.90;;;;;;;22.80;58.74;99096.31;6097275;23;20176;-85
2023/06/04 01:44:50;;;;;;;4.33;2.50;;;;;;;22.79;59.00;99100.81;6098441;23;20157;-85
2023/06/04 01:47:16;;;;;;;4.23;1.93;;;;;;;22.85;58.64;99094.00;6098735;23;20215;-85
2023/06/04 01:49:41;;;;;;;3.30;1.80;;;;;;;22.91;58.30;99090.66;6098742;23;20152;-85
2023/06/04 01:52:07;;;;;;;4.83;2.37;;;;;;;22.89;58.34;99096.19;6098992;23;20145;-85
2023/06/04 01:54:33;;;;;;;4.83;2.17;;;;;;;22.91;57.57;99096.84;6098353;23;20163;-85
2023/06/04 01:56:59;;;;;;;3.63;1.90;;;;;;;22.96;57.12;99107.06;6098282;23;20591;-85
2023/06/04 01:59:25;;;;;;;4.97;1.97;;;;;;;22.92;57.05;99105.72;6098314;23;20149;-85
2023/06/04 02:01:50;;;;;;;5.80;2.43;;;;;;;22.80;57.40;99105.13;6097391;23;20231;-85
2023/06/04 02:04:16;;;;;;;4.83;2.13;;;;;;;22.76;57.90;99106.47;6098568;23;20608;-85
2023/06/04 02:06:41;;;;;;;4.60;1.77;;;;;;;22.69;58.92;99115.28;6098877;23;20299;-85
2023/06/04 02:09:07;;;;;;;6.80;2.23;;;;;;;22.62;59.59;99118.56;6098541;23;20159;-85
2023/06/04 02:11:32;;;;;;;6.70;2.37;;;;;;;22.63;59.54;99120.25;6098546;23;20592;-85
2023/06/04 02:13:57;;;;;;;4.07;2.00;;;;;;;22.67;59.46;99125.28;6097376;23;20166;-85
2023/06/04 02:16:23;;;;;;;3.33;1.57;;;;;;;22.60;59.85;99123.19;6097673;23;20184;-85
2023/06/04 02:18:48;;;;;;;6.00;2.10;;;;;;;22.56;60.49;99137.03;6098082;23;20481;-85
2023/06/04 02:21:14;;;;;;;5.80;2.43;;;;;;;22.54;60.40;99136.34;6096811;23;20648;-85
2023/06/04 02:23:40;;;;;;;3.30;2.00;;;;;;;22.54;60.75;99144.34;6096854;23;20152;-84
2023/06/04 02:26:06;;;;;;;6.70;2.30;;;;;;;22.56;60.87;99148.53;6097478;23;20165;-84
2023/06/04 02:28:31;;;;;;;4.53;2.37;;;;;;;22.58;60.01;99146.56;6098357;23;20159;-85
2023/06/04 02:30:57;;;;;;;4.83;2.07;;;;;;;22.58;60.42;99146.56;6097156;23;20539;-85
2023/06/04 02:33:22;;;;;;;5.33;2.27;;;;;;;22.58;60.12;99156.41;6097967;23;20584;-85
2023/06/04 02:35:47;;;;;;;7.87;2.63;;;;;;;22.55;61.03;99162.91;6097949;23;20236;-85
2023/06/04 02:38:13;;;;;;;3.43;1.90;;;;;;;22.56;60.83;99164.56;6097794;23;20601;-85
2023/06/04 02:40:39;;;;;;;5.10;2.33;;;;;;;22.57;60.52;99163.59;6097758;23;20176;-85
2023/06/04 02:43:04;;;;;;;5.60;2.27;;;;;;;22.55;60.66;99168.25;6097852;23;20211;-85
2023/06/04 02:45:30;;;;;;;4.40;2.50;;;;;;;22.56;60.75;99164.56;6096626;23;20160;-85
2023/06/04 02:47:57;;;;;;;5.27;2.40;;;;;;;22.59;60.15;99169.59;6096589;23;20235;-85
2023/06/04 02:50:23;;;;;;;6.30;2.53;;;;;;;22.59;60.47;99166.94;6096928;23;20152;-85
2023/06/04 02:52:48;;;;;;;5.33;2.80;;;;;;;22.56;61.25;99161.09;6098411;23;20152;-85
2023/06/04 02:55:14;;;;;;;6.60;2.23;;;;;;;22.51;61.12;99164.19;6096500;23;20157;-85
2023/06/04 02:57:43;;;;;;;5.73;2.30;;;;;;;22.49;61.31;99168.88;6096875;23;20223;-85
2023/06/04 03:00:14;;;;;;;7.13;2.63;;;;;;;22.54;61.33;99171.91;6097540;23;20243;-85
2023/06/04 03:02:47;;;;;;;5.90;2.40;;;;;;;22.64;60.40;99171.88;6097465;23;20188;-85
2023/06/04 03:05:14;;;;;;;4.50;2.60;;;;;;;22.62;60.65;99169.31;6096504;23;20144;-85
2023/06/04 03:07:43;;;;;;;4.47;2.40;;;;;;;22.64;60.38;99175.34;6098623;23;20149;-85
2023/06/04 03:10:09;;;;;;;5.03;2.37;;;;;;;22.63;59.78;99180.88;6096356;23;20583;-85
2023/06/04 03:12:35;;;;;;;4.37;2.30;;;;;;;22.59;60.33;99182.97;6096396;23;20541;-85
2023/06/04 03:15:01;;;;;;;5.13;2.67;;;;;;;22.57;60.59;99186.78;6096393;23;20160;-85
2023/06/04 03:17:26;;;;;;;4.20;2.13;;;;;;;22.53;60.96;99180.09;6096746;23;20493;-84
2023/06/04 03:19:52;;;;;;;5.23;2.70;;;;;;;22.48;61.49;99172.50;6096975;23;20525;-84
2023/06/04 03:22:17;;;;;;;6.67;2.47;;;;;;;22.47;62.23;99181.53;6096214;23;20534;-85
2023/06/04 03:24:43;;;;;;;6.07;2.70;;;;;;;22.49;62.40;99179.56;6097451;23;20569;-85
2023/06/04 03:27:10;;;;;;;6.67;2.50;;;;;;;22.52;62.76;99184.59;6096578;23;20167;-85
2023/06/04 03:29:36;;;;;;;4.97;2.40;;;;;;;22.52;62.38;99192.59;6098074;23;20156;-85
2023/06/04 03:32:02;;;;;;;6.40;2.50;;;;;;;22.52;62.45;99189.94;6096525;23;20517;-85
2023/06/04 03:34:31;;;;;;;6.00;2.60;;;;;;;22.54;62.86;99198.63;6096130;23;20163;-85
2023/06/04 03:36:57;;;;;;;4.80;2.60;;;;;;;22.63;62.04;99189.72;6096470;23;20212;-85
2023/06/04 03:39:23;;;;;;;7.33;2.27;;;;;;;22.63;61.37;99189.72;6096857;23;20161;-85
2023/06/04 03:41:48;;;;;;;3.90;2.10;;;;;;;22.69;61.17;99184.75;6097032;23;20286;-85
2023/06/04 03:44:18;;;;;;;4.63;2.33;;;;;;;22.79;60.04;99180.13;6096123;23;20160;-85
2023/06/04 03:46:44;;;;;;;4.53;2.60;;;;;;;22.84;59.87;99185.84;6096488;23;20161;-84
2023/06/04 03:49:11;;;;;;;5.60;2.80;;;;;;;22.82;59.40;99179.84;6097155;23;20148;-84
2023/06/04 03:51:37;;;;;;;6.50;2.53;;;;;;;22.79;59.49;99190.84;6097238;23;20149;-85
2023/06/04 03:54:03;;;;;;;5.07;2.73;;;;;;;22.76;59.57;99188.47;6096010;23;20160;-85
2023/06/04 03:56:28;;;;;;;5.40;2.20;;;;;;;22.74;59.13;99193.97;6096000;23;20236;-84
2023/06/04 03:58:54;;;;;;;5.33;2.30;;;;;;;22.67;59.69;99198.25;6097823;23;20157;-84
2023/06/04 04:01:20;;;;;;;5.20;2.10;;;;;;;22.69;60.03;99198.09;6097396;23;20176;-84
2023/06/04 04:03:48;;;;;;;3.77;2.17;;;;;;;22.69;60.97;99198.09;6095967;23;20165;-85
2023/06/04 04:06:13;;;;;;;5.10;2.17;;;;;;;22.68;61.09;99202.59;6096303;23;20561;-85
2023/06/04 04:08:43;;;;;;;6.27;2.50;;;;;;;22.68;60.79;99207.09;6095898;23;20243;-84
2023/06/04 04:11:12;;;;;;;6.47;2.37;;;;;;;22.62;60.82;99205.88;6096924;23;20242;-84
2023/06/04 04:13:38;;;;;;;5.63;2.43;;;;;;;22.63;60.96;99207.59;6097415;23;20179;-84
2023/06/04 04:16:04;;;;;;;7.03;2.27;;;;;;;22.59;61.30;99207.00;6097055;23;20148;-84
2023/06/04 04:18:35;;;;;;;5.37;2.50;;;;;;;22.63;61.80;99208.44;6097069;23;20160;-84
2023/06/04 04:21:02;;;;;;;6.77;2.90;;;;;;;22.68;61.19;99213.31;6096354;23;20636;-84
2023/06/04 04:23:29;;;;;;;5.30;2.93;;;;;;;22.72;61.31;99219.19;6097108;23;20561;-84
2023/06/04 04:25:58;;;;;;;4.50;2.73;;;;;;;22.78;61.88;99215.88;6095853;23;20497;-84
2023/06/04 04:28:24;;;;;;;5.80;2.73;;;;;;;22.81;62.41;99210.22;6095787;23;20252;-85
2023/06/04 04:30:49;;;;;;;5.90;2.87;;;;;;;22.87;62.50;99221.13;6097380;23;20492;-84
2023/06/04 04:33:17;;;;;;;4.20;2.47;;;;;;;22.93;62.44;99212.47;6097025;23;20152;-84
2023/06/04 04:35:44;;;;;;;4.83;2.63;;;;;;;22.98;61.84;99220.84;6097649;23;20148;-84
2023/06/04 04:38:10;;;;;;;5.47;2.80;;;;;;;23.01;61.03;99209.00;6095774;23;20490;-85
2023/06/04 04:40:36;;;;;;;6.70;2.77;;;;;;;23.08;61.24;99218.09;6097210;23;20152;-84
2023/06/04 04:43:02;;;;;;;8.70;3.20;;;;;;;23.12;61.71;99220.28;6096083;23;20164;-85
2023/06/04 04:45:27;;;;;;;6.93;2.77;;;;;;;23.16;60.84;99224.34;6097279;23;20153;-84
2023/06/04 04:47:52;;;;;;;6.57;2.97;;;;;;;23.20;61.08;99232.88;6097127;23;20156;-85
2023/06/04 04:50:18;;;;;;;3.83;2.50;;;;;;;23.22;61.08;99233.53;6096119;23;20227;-85
2023/06/04 04:52:43;;;;;;;4.07;2.27;;;;;;;23.29;61.39;99237.28;6095726;23;20239;-84
2023/06/04 04:55:09;;;;;;;6.40;2.47;;;;;;;23.33;60.41;99240.47;6095759;23;20152;-85
2023/06/04 04:57:35;;;;;;;3.63;2.13;;;;;;;23.35;60.82;99236.63;6097276;23;20153;-85
2023/06/04 05:00:04;;;;;;;5.57;2.73;;;;;;;23.44;60.37;99238.41;6096706;23;20168;-85
2023/06/04 05:02:29;;;;;;;4.20;2.33;;;;;;;23.55;60.69;99243.47;6096899;23;20192;-85
2023/06/04 05:04:55;;;;;;;6.00;2.77;;;;;;;23.60;61.16;99248.34;6097673;23;20161;-85
2023/06/04 05:07:21;;;;;;;5.37;2.80;;;;;;;23.75;60.23;99252.94;6099551;23;20156;-85
2023/06/04 05:09:47;;;;;;;4.67;2.57;;;;;;;23.76;59.17;99253.78;6099443;23;20148;-85
2023/06/04 05:12:12;;;;;;;6.50;2.67;;;;;;;23.71;59.54;99253.41;6097854;23;20464;-85
2023/06/04 05:14:37;;;;;;;6.27;3.10;;;;;;;23.69;59.46;99256.25;6099085;23;20160;-85
2023/06/04 05:17:03;;;;;;;5.93;2.87;;;;;;;23.73;59.97;99252.25;6098741;23;20576;-85
2023/06/04 05:19:32;;;;;;;5.93;2.27;;;;;;;23.74;60.05;99253.91;6098735;23;20177;-85
2023/06/04 05:21:58;;;;;;;7.43;2.63;;;;;;;23.81;59.89;99257.66;6098662;23;20189;-85
2023/06/04 05:24:24;;;;;;;9.93;2.33;;;;;;;23.91;59.63;99260.19;6097847;23;20231;-85
2023/06/04 05:26:49;;;;;;;6.20;2.73;;;;;;;24.08;59.53;99255.72;6097844;23;20303;-85
2023/06/04 05:29:15;;;;;;;6.90;2.90;;;;;;;24.13;59.66;99267.66;6099583;23;20176;-85
2023/06/04 05:31:40;;;;;;;4.90;2.50;;;;;;;24.20;58.80;99265.16;6098603;23;20144;-85
2023/06/04 05:34:06;;;;;;;5.37;2.27;;;;;;;24.25;58.73;99268.19;6098564;23;20156;-85
2023/06/04 05:36:31;;;;;;;6.00;2.90;;;;;;;24.20;59.46;99270.50;6097351;23;20166;-85
2023/06/04 05:38:57;;;;;;;5.37;2.70;;;;;;;24.31;58.65;99271.06;6099532;23;20173;-85
2023/06/04 05:41:27;;;;;;;5.00;2.80;;;;;;;24.31;58.03;99276.41;6098733;23;20184;-85
2023/06/04 05:43:53;;;;;;;7.63;2.43;;;;;;;24.28;58.29;99271.38;6099165;23;20152;-85
2023/06/04 05:46:19;;;;;;;5.73;3.20;;;;;;;24.34;58.74;99275.25;6098420;23;20208;-85
2023/06/04 05:48:45;;;;;;;9.43;2.70;;;;;;;24.35;58.14;99283.09;6098466;23;20199;-85
2023/06/04 05:51:13;;;;;;;9.87;3.27;;;;;;;24.36;58.28;99284.78;6098411;23;20500;-85
2023/06/04 05:53:38;;;;;;;5.00;2.60;;;;;;;24.29;58.91;99286.44;6098369;23;20152;-85
2023/06/04 05:56:04;;;;;;;9.30;3.13;;;;;;;24.30;59.66;99287.28;6098384;23;20152;-85
2023/06/04 05:58:30;;;;;;;4.77;2.90;;;;;;;24.39;58.52;99294.34;6098688;23;20182;-85
2023/06/04 06:00:55;;;;;;;5.00;2.73;;;;;;;24.33;59.49;99303.88;6098892;23;20246;-85
2023/06/04 06:03:21;;;;;;;5.93;2.80;;;;;;;24.42;59.30;99304.75;6098313;23;20611;-85
2023/06/04 06:05:46;;;;;;;5.60;2.70;;;;;;;24.50;59.40;99314.63;6097033;23;20171;-85
2023/06/04 06:08:13;;;;;;;9.13;3.03;;;;;;;24.44;59.59;99305.41;6098639;23;20152;-85
2023/06/04 06:10:39;;;;;;;7.97;3.40;;;;;;;24.50;59.61;99302.09;6097395;23;20167;-85
2023/06/04 06:13:04;;;;;;;5.03;2.70;;;;;;;24.45;59.37;99312.44;6097622;23;20223;-85
2023/06/04 06:15:29;;;;;;;6.50;2.70;;;;;;;24.49;59.31;99316.47;6098522;23;20176;-85
2023/06/04 06:17:55;;;;;;;10.27;3.33;;;;;;;24.49;59.57;99316.47;6097343;23;20168;-85
2023/06/04 06:20:21;;;;;;;7.07;3.50;;;;;;;24.37;59.15;99331.19;6097464;23;20461;-85
2023/06/04 06:22:48;;;;;;;7.80;2.60;;;;;;;24.40;58.42;99322.81;6097819;23;20485;-85
2023/06/04 06:25:15;;;;;;;6.27;2.73;;;;;;;24.44;58.53;99326.84;6097246;23;20159;-85
2023/06/04 06:27:41;;;;;;;5.57;3.13;;;;;;;24.46;58.37;99338.25;6098040;23;20243;-86
2023/06/04 06:30:08;;;;;;;8.60;2.53;;;;;;;24.45;58.96;99328.50;6098603;23;20156;-86
2023/06/04 06:32:33;;;;;;;6.87;3.00;;;;;;;24.48;58.79;99338.91;6098371;23;20171;-86
2023/06/04 06:34:59;;;;;;;6.93;3.20;;;;;;;24.47;59.11;99342.59;6097893;23;20568;-85
2023/06/04 06:37:25;;;;;;;8.30;3.00;;;;;;;24.48;58.70;99344.25;6098274;23;20168;-85
2023/06/04 06:39:50;;;;;;;7.10;2.80;;;;;;;24.43;58.77;99343.91;6096677;23;20152;-85
2023/06/04 06:42:18;;;;;;;4.87;2.60;;;;;;;24.46;59.00;99351.63;6096579;23;20183;-86
2023/06/04 06:44:44;;;;;;;8.90;2.77;;;;;;;24.45;59.28;99353.47;6098013;23;20483;-85
2023/06/04 06:47:13;;;;;;;5.13;2.77;;;;;;;24.46;59.28;99351.63;6097851;23;20175;-85
2023/06/04 06:49:41;;;;;;;5.73;3.50;;;;;;;24.47;59.67;99355.16;6097009;23;20152;-85
2023/06/04 06:52:07;;;;;;;5.73;3.17;;;;;;;24.50;59.19;99354.84;6097762;23;20176;-85
2023/06/04 06:54:32;;;;;;;8.00;3.03;;;;;;;24.58;59.15;99352.19;6098119;23;20159;-85
2023/06/04 06:56:58;;;;;;;6.10;2.83;;;;;;;24.66;58.65;99353.00;6098090;23;20219;-86
2023/06/04 06:59:23;;;;;;;6.70;3.00;;;;;;;24.73;59.60;99363.94;6098020;23;20643;-85
2023/06/04 07:01:49;;;;;;;5.00;3.03;;;;;;;24.79;59.67;99364.13;6098292;23;20180;-85
2023/06/04 07:04:21;;;;;;;5.97;3.00;;;;;;;24.87;58.91;99365.97;6097650;23;20493;-85
2023/06/04 07:06:46;;;;;;;6.23;2.90;;;;;;;24.94;58.30;99369.69;6097607;23;20163;-86
2023/06/04 07:09:13;;;;;;;6.10;3.33;;;;;;;24.90;59.56;99363.81;6097915;23;20152;-86
2023/06/04 07:11:38;;;;;;;5.67;3.20;;;;;;;24.97;59.02;99367.50;6096401;23;20187;-86
2023/06/04 07:14:04;;;;;;;6.40;3.90;;;;;;;24.90;60.24;99371.00;6097641;23;20569;-86
2023/06/04 07:16:29;;;;;;;7.30;3.63;;;;;;;24.96;59.82;99370.38;6096309;23;20148;-85
2023/06/04 07:18:55;;;;;;;5.30;3.47;;;;;;;24.91;59.22;99373.56;6096325;23;20156;-87
2023/06/04 07:21:22;;;;;;;7.83;3.40;;;;;;;24.70;59.60;99380.34;6097359;23;20475;-86
2023/06/04 07:23:49;;;;;;;10.03;3.83;;;;;;;24.73;60.41;99372.81;6097663;23;20569;-86
2023/06/04 07:26:15;;;;;;;5.47;3.40;;;;;;;24.72;60.84;99373.81;6097376;23;20206;-85
2023/06/04 07:28:41;;;;;;;6.83;3.43;;;;;;;24.79;61.91;99374.84;6097412;23;20660;-86
2023/06/04 07:31:07;;;;;;;5.73;3.57;;;;;;;24.85;60.69;99371.53;6096229;23;20160;-86
2023/06/04 07:33:32;;;;;;;6.20;3.20;;;;;;;24.94;60.73;99372.38;6097199;23;20152;-86
2023/06/04 07:35:58;;;;;;;7.83;4.00;;;;;;;25.03;60.00;99366.84;6097295;23;20591;-85
2023/06/04 07:38:24;;;;;;;10.97;3.53;;;;;;;25.16;59.79;99365.53;6097642;23;20157;-86
2023/06/04 07:40:50;;;;;;;7.07;3.87;;;;;;;25.19;59.42;99370.53;6097865;23;20153;-86
2023/06/04 07:43:16;;;;;;;7.23;3.43;;;;;;;25.22;59.05;99370.22;6097246;23;20529;-86
2023/06/04 07:45:41;;;;;;;9.73;3.50;;;;;;;25.26;59.79;99374.25;6097289;23;20176;-86
2023/06/04 07:48:10;;;;;;;8.80;3.80;;;;;;;25.34;59.65;99382.28;6096041;23;20164;-85
2023/06/04 07:50:36;;;;;;;7.97;3.57;;;;;;;25.54;59.96;99381.81;6096020;23;20156;-86
2023/06/04 07:53:01;;;;;;;5.97;3.10;;;;;;;25.77;58.67;99387.31;6096071;23;20317;-85
2023/06/04 07:55:27;;;;;;;6.63;3.30;;;;;;;25.93;57.74;99384.59;6097213;23;20518;-86
2023/06/04 07:57:52;;;;;;;5.07;2.80;;;;;;;26.09;58.38;99389.91;6097176;23;20153;-86
2023/06/04 08:00:18;;;;;;;7.60;3.13;;;;;;;25.96;57.68;99394.13;6097825;23;20210;-86
2023/06/04 08:02:43;;;;;;;6.93;2.80;;;;;;;26.02;58.79;99396.16;6096190;23;20188;-86
2023/06/04 08:05:09;;;;;;;6.63;2.70;;;;;;;26.27;56.53;99395.06;6097097;23;20148;-86
2023/06/04 08:07:35;;;;;;;6.83;3.00;;;;;;;26.27;57.93;99396.91;6097738;23;20156;-86
2023/06/04 08:10:00;;;;;;;5.70;2.45;;;;;;;26.10;55.98;99405.00;6095843;23;20156;-87
2023/06/04 08:12:26;;;;;;;5.27;2.80;;;;;;;26.10;56.61;99402.31;6097039;23;20158;-87
2023/06/04 08:14:51;;;;;;;7.17;3.00;;;;;;;26.10;56.42;99409.56;6097017;23;20148;-87
2023/06/04 08:17:16;;;;;;;6.80;2.60;;;;;;;26.13;56.82;99410.06;6097010;23;20534;-86
2023/06/04 08:19:42;;;;;;;7.07;3.00;;;;;;;26.23;55.48;99401.81;6097002;23;20539;-87
2023/06/04 08:22:11;;;;;;;4.57;2.15;;;;;;;26.21;57.30;99404.66;6097020;23;20216;-86
2023/06/04 08:24:36;;;;;;;6.97;3.00;;;;;;;26.21;57.48;99407.34;6096924;23;20188;-87
2023/06/04 08:27:02;;;;;;;5.53;2.67;;;;;;;26.07;56.92;99409.91;6120170;23;20159;-86
2023/06/04 08:29:27;;;;;;;6.07;2.50;;;;;;;26.15;57.29;99416.09;6097000;23;20148;-86
2023/06/04 08:31:53;;;;;;;4.67;2.60;;;;;;;26.09;55.97;99418.63;6097631;23;20144;-86
2023/06/04 08:34:18;;;;;;;8.40;2.13;;;;;;;25.98;56.13;99411.75;6097600;23;20198;-86
2023/06/04 08:36:44;;;;;;;6.43;2.80;;;;;;;26.03;56.72;99416.63;6096582;23;20211;-86
2023/06/04 08:39:11;;;;;;;7.63;3.30;;;;;;;26.28;55.88;99412.06;6096631;23;20208;-86
2023/06/04 08:41:48;;;;;;;6.82;3.08;;;;;;;26.20;57.03;99427.16;6097176;23;20176;-87
2023/06/04 08:44:17;;;;;;;5.72;2.95;;;;;;;26.12;58.60;99423.66;6097681;23;20137;-86
2023/06/04 08:46:44;;;;;;;7.18;3.13;;;;;;;26.33;57.79;99417.75;6095708;23;20156;-86
2023/06/04 08:49:12;;;;;;;4.63;2.58;;;;;;;26.39;56.73;99417.06;6096786;23;20159;-86
2023/06/04 08:51:40;;;;;;;7.13;3.03;;;;;;;26.22;57.86;99424.31;6095429;23;20235;-86
2023/06/04 08:54:08;;;;;;;6.90;3.67;;;;;;;26.17;59.53;99419.47;6096306;23;20547;-86
2023/06/04 08:56:35;;;;;;;6.27;3.50;;;;;;;26.26;57.64;99417.56;6095763;23;20543;-86
2023/06/04 08:59:08;;;;;;;10.83;3.67;;;;;;;26.36;58.03;99426.31;6096852;23;20595;-86
2023/06/04 09:01:36;;;;;;;4.97;2.80;;;;;;;26.22;57.88;99433.22;6097222;23;20169;-86
2023/06/04 09:04:05;;;;;;;7.17;3.60;;;;;;;26.21;58.00;99436.91;6096918;23;20153;-86
2023/06/04 09:06:33;;;;;;;7.23;3.30;;;;;;;26.27;57.07;99431.84;6096784;23;20240;-86
2023/06/04 09:09:03;;;;;;;11.15;3.72;;;;;;;26.33;57.25;99434.72;6097504;23;20155;-86
2023/06/04 09:11:46;;;;;;;7.27;4.07;;;;;;;26.44;56.66;99428.94;6095703;23;20141;-86
2023/06/04 09:14:16;;;;;;;7.27;3.83;;;;;;;26.39;57.23;99431.31;6097537;23;20164;-87
2023/06/04 09:16:48;;;;;;;6.00;3.83;;;;;;;26.15;57.97;99429.53;6096840;23;20160;-87
2023/06/04 09:19:15;;;;;;;10.65;4.50;;;;;;;26.09;57.90;99430.22;6097443;23;20163;-86
2023/06/04 09:21:55;;;;;;;7.67;3.93;;;;;;;26.07;58.31;99426.84;6096740;23;20659;-87
2023/06/04 09:24:24;;;;;;;9.40;4.95;;;;;;;26.27;57.79;99431.84;6097091;23;20160;-86
2023/06/04 09:26:51;;;;;;;8.67;5.30;;;;;;;26.45;57.86;99429.78;6096758;23;20232;-86
2023/06/04 09:29:18;;;;;;;10.27;5.53;;;;;;;26.53;58.94;99432.44;6096715;23;20156;-86
2023/06/04 09:31:47;;;;;;;10.10;5.70;;;;;;;26.52;58.41;99434.28;6096764;23;20148;-86
2023/06/04 09:34:14;;;;;;;13.77;6.90;;;;;;;26.52;58.82;99433.47;6095564;23;20164;-86
2023/06/04 09:36:41;;;;;;;9.53;6.53;;;;;;;26.36;59.85;99433.53;6096725;23;20172;-87
2023/06/04 09:39:18;;;;;;;8.93;5.10;;;;;;;26.32;59.26;99424.97;6095539;23;20314;-86
2023/06/04 09:41:44;;;;;;;7.83;5.33;;;;;;;26.37;60.02;99427.13;6095019;23;20270;-86
2023/06/04 09:44:11;;;;;;;8.17;5.30;;;;;;;26.55;60.14;99419.63;6096620;23;20156;-87
2023/06/04 09:46:39;;;;;;;11.47;6.23;;;;;;;26.62;58.72;99417.94;6096641;23;20227;-87
2023/06/04 09:49:06;;;;;;;11.00;6.50;;;;;;;26.62;58.86;99413.41;6097781;23;20161;-86
2023/06/04 09:51:33;;;;;;;11.87;6.50;;;;;;;26.66;59.19;99416.56;6096103;23;20611;-86
2023/06/04 09:54:00;;;;;;;9.87;5.83;;;;;;;26.68;58.88;99422.59;6097818;23;20152;-87
2023/06/04 09:56:27;;;;;;;10.23;5.20;;;;;;;26.73;59.56;99417.53;6097501;23;20152;-86
2023/06/04 09:59:00;;;;;;;7.20;4.53;;;;;;;26.90;58.07;99413.78;6097102;23;20180;-87
2023/06/04 10:01:27;;;;;;;11.40;5.00;;;;;;;26.94;58.60;99425.03;6098380;23;20168;-87
2023/06/04 10:03:56;;;;;;;8.93;4.35;;;;;;;26.92;58.16;99422.50;6097478;23;20231;-87
2023/06/04 10:06:25;;;;;;;6.68;4.10;;;;;;;27.05;57.45;99417.38;6098068;23;20148;-87
2023/06/04 10:08:54;;;;;;;7.00;4.70;;;;;;;27.16;58.74;99422.34;6097941;23;20456;-87
2023/06/04 10:11:26;;;;;;;6.87;4.50;;;;;;;27.03;56.17;99424.78;6097712;23;20157;-87
2023/06/04 10:14:45;;;;;;;9.70;4.30;;;;;;;27.12;55.74;99422.91;6097858;23;20211;-86
2023/06/04 10:17:13;;;;;;;9.40;3.88;;;;;;;27.34;56.99;99422.03;6094214;23;20169;-87
2023/06/04 10:19:43;;;;;;;7.32;4.00;;;;;;;27.29;56.03;99419.06;6096715;23;20227;-87
2023/06/04 10:22:11;;;;;;;5.50;3.60;;;;;;;27.35;55.87;99418.34;6097649;23;20228;-87
2023/06/04 10:24:38;;;;;;;9.82;3.33;;;;;;;27.42;53.27;99428.25;6097917;23;20176;-87
2023/06/04 10:27:10;;;;;;;8.30;3.65;;;;;;;27.59;53.52;99428.94;6097560;23;20191;-87
2023/06/04 10:29:37;;;;;;;8.20;3.65;;;;;;;27.66;53.89;99429.88;6096444;23;20227;-86
2023/06/04 10:32:06;;;;;;;6.40;3.47;;;;;;;27.68;53.59;99429.69;6098042;23;20159;-87
2023/06/04 10:34:35;;;;;;;6.15;3.10;;;;;;;27.53;53.44;99431.50;6097742;23;20227;-87
2023/06/04 10:37:02;;;;;;;8.45;3.25;;;;;;;27.40;55.15;99432.97;6097818;23;20159;-87
2023/06/04 10:39:32;;;;;;;6.75;3.38;;;;;;;27.28;54.94;99437.06;6121083;23;20156;-87
2023/06/04 10:42:03;;;;;;;5.80;3.00;;;;;;;27.16;54.89;99429.59;6098284;23;20259;-87
2023/06/04 10:44:43;;;;;;;7.15;3.30;;;;;;;27.03;55.52;99438.25;6098169;23;20199;-87
2023/06/04 10:47:22;;;;;;;6.63;3.33;;;;;;;26.77;55.85;99435.03;6096642;23;20599;-87
2023/06/04 10:49:53;;;;;;;6.50;3.45;;;;;;;26.72;55.54;99432.00;6098160;23;20140;-87
2023/06/04 10:52:20;;;;;;;7.53;4.25;;;;;;;26.94;55.38;99433.91;6097643;23;20136;-86
2023/06/04 10:54:53;;;;;;;5.93;3.83;;;;;;;26.94;56.05;99428.53;6097621;23;20253;-86
2023/06/04 10:57:19;;;;;;;7.53;3.70;;;;;;;26.98;55.49;99426.34;6097772;23;20203;-87
2023/06/04 10:59:57;;;;;;;5.95;4.07;;;;;;;26.97;55.65;99430.88;6097292;23;20191;-88
2023/06/04 11:02:23;;;;;;;7.40;4.63;;;;;;;26.86;55.61;99422.41;6097387;23;20172;-86
2023/06/04 11:05:05;;;;;;;6.85;4.10;;;;;;;27.10;53.49;99419.53;6096378;23;20156;-86
2023/06/04 11:07:44;;;;;;;8.88;5.47;;;;;;;27.16;55.65;99414.28;6096428;23;20176;-86
2023/06/04 11:10:14;;;;;;;9.20;4.38;;;;;;;27.27;55.16;99411.16;6097809;23;20137;-86
2023/06/04 11:12:52;;;;;;;7.68;4.65;;;;;;;27.56;53.50;99415.00;6097201;23;20153;-86
2023/06/04 11:15:18;;;;;;;6.43;4.15;;;;;;;27.73;52.90;99411.97;6097917;23;20137;-86
2023/06/04 11:17:54;;;;;;;8.90;3.95;;;;;;;27.79;51.95;99410.41;6096327;23;20217;-86
2023/06/04 11:20:22;;;;;;;9.50;3.88;;;;;;;27.68;52.35;99408.13;6096337;23;20599;-86
2023/06/04 11:22:55;;;;;;;6.57;3.53;;;;;;;27.80;51.70;99406.69;6095977;23;20220;-86
2023/06/04 11:25:22;;;;;;;8.18;4.00;;;;;;;27.91;53.15;99400.81;6097788;23;20208;-86
2023/06/04 11:27:49;;;;;;;6.55;4.20;;;;;;;28.03;50.40;99408.34;6097442;23;20148;-87
2023/06/04 11:30:16;;;;;;;5.57;3.20;;;;;;;28.02;49.30;99400.41;6097304;23;20152;-86
2023/06/04 11:32:41;;;;;;;6.20;3.45;;;;;;;28.10;48.83;99399.47;6097634;23;20148;-86
2023/06/04 11:35:07;;;;;;;8.13;3.60;;;;;;;28.34;49.47;99389.25;6097432;23;20235;-86